INFORMACIÓN METAR y TAF
METAR FOR LEGE
ADDS - METARS form results

(2243 UTC 17 January 2020)
Data provider http://aviationweather.gov/metar/data/
 
METAR text: LEGE 172230Z VRB01KT CAVOK 03/02 Q1029
Conditions at: LEGE (GERONA/COSTA BRA, ES) observed 2230 UTC 17 January 2020
Temperature: 3.0°C (37°F)
Dewpoint: 2.0°C (36°F) [RH = 93%]
Pressure (altimeter): 30.38 inches Hg (1029.0 mb)
Winds: variable direction winds at 1 MPH (1 knots; 0.5 m/s)
Visibility: 6 or more miles (10+ km)
Ceiling: ceiling and visibility are OK
Clouds: unknown
Weather: no significant weather observed at this time

METAR text: LEGE 172200Z 04004KT CAVOK 02/01 Q1029
Conditions at: LEGE (GERONA/COSTA BRA, ES) observed 2200 UTC 17 January 2020
Temperature: 2.0°C (36°F)
Dewpoint: 1.0°C (34°F) [RH = 93%]
Pressure (altimeter): 30.38 inches Hg (1029.0 mb)
Winds: from the NE (40 degrees) at 5 MPH (4 knots; 2.1 m/s)
Visibility: 6 or more miles (10+ km)
Ceiling: ceiling and visibility are OK
Clouds: unknown
Weather: no significant weather observed at this time

Forecast for: LEGE (GERONA/COSTA BRA, ES)
Text: TAF LEGE 171700Z 1718/1818 VRB03KT 9999 FEW020 TX14/1812Z TN04/1806Z
Forecast period: 1800 UTC 17 January 2020 to 1800 UTC 18 January 2020
Forecast type: FROM: standard forecast or significant change
Winds: variable direction winds at 3 MPH (3 knots; 1.5 m/s)
Visibility: 6 or more miles 10+ km)
Ceiling: at least 12,000 feet AGL
Clouds: few clouds at 2000 feet AGL
Weather: no significant weather forecast for this period
Text: PROB30
Forecast period: 1800 to 1900 UTC 17 January 2020
Forecast type: TEMPORARY: The following changes expected for less than half the time period
Visibility: 2.49 miles (4.01 km)
Ceiling: at least 12,000 feet AGL
Clouds: few clouds at 3000 feet AGL
Weather: SHRA  (rain showers)
Text: TEMPO 1718/1719 4000 SHRA FEW030TCU
Forecast period: 2200 UTC 17 January 2020 to 0400 UTC 18 January 2020
Forecast type: TEMPORARY: The following changes expected for less than half the time period
Visibility: 2.49 miles (4.01 km)
Ceiling: unknown
Clouds: missing
Weather: BR  (mist)

MAPA DE AEROPUERTO

INFORMACIÓN DE PISTA
Pista 02 Longitud 7874 ft Ancho 148 ft
Elevación 403 ft Umbral desplazado 0 ft Rumbo de pista 16
Pista 20 Longitud 7874 ft Ancho 148 ft
Elevación 468 ft Umbral desplazado 0 ft Rumbo de pista 196

FRECUANCIAS DEL AEROPUERTO
Tipo APP Nombre APP Frecuencia 120.9 MHZ
Tipo GND Nombre GND Frecuencia 121.7 MHZ
Tipo TWR Nombre TWR Frecuencia 118.5 MHZ

RADIO AYUDAS DEL AEROPUERTO
Tipo VOR-DME Nombre Gerona Frecuencia 114100 KHZ
Tipo NDB Nombre Gerona Frecuencia 412 KHZ